createdAt,value
2018-03-11T00:02:05.913Z,73.20
2018-03-11T00:04:34.269Z,74.20
2018-03-11T00:07:01.828Z,74.10
2018-03-11T00:09:29.422Z,74.40
2018-03-11T00:11:57.753Z,73.40
2018-03-11T00:14:26.113Z,72.60
2018-03-11T00:16:54.001Z,72.60
2018-03-11T00:19:21.601Z,72.20
2018-03-11T00:21:49.171Z,75.10
2018-03-11T00:24:16.739Z,72.10
2018-03-11T00:26:44.324Z,74.30
2018-03-11T00:29:11.890Z,73.90
2018-03-11T00:31:39.473Z,73.70
2018-03-11T00:34:07.043Z,71.90
2018-03-11T00:36:34.630Z,75.20
2018-03-11T00:39:02.194Z,74.60
2018-03-11T00:41:29.786Z,75.40
2018-03-11T00:43:57.349Z,73.20
2018-03-11T00:46:24.948Z,75.60
2018-03-11T00:48:53.280Z,75.20
2018-03-11T00:51:20.876Z,75.10
2018-03-11T00:53:49.205Z,74.40
2018-03-11T00:56:16.794Z,74.40
2018-03-11T00:58:44.352Z,73.10
2018-03-11T01:01:11.933Z,73.00
2018-03-11T01:03:40.253Z,74.90
2018-03-11T01:06:07.829Z,75.00
2018-03-11T01:08:35.393Z,72.80
2018-03-11T01:11:02.990Z,74.80
2018-03-11T01:13:31.350Z,75.00
2018-03-11T01:15:58.932Z,74.90
2018-03-11T01:18:26.498Z,74.30
2018-03-11T01:20:54.085Z,74.60
2018-03-11T01:23:21.648Z,72.50
2018-03-11T01:25:49.228Z,72.80
2018-03-11T01:28:16.789Z,75.40
2018-03-11T01:30:44.416Z,73.80
2018-03-11T01:33:11.973Z,76.80
2018-03-11T01:35:39.565Z,74.10
2018-03-11T01:38:07.154Z,73.80
2018-03-11T01:40:35.489Z,74.00
2018-03-11T01:43:03.081Z,74.60
2018-03-11T01:45:30.673Z,73.70
2018-03-11T01:47:58.252Z,73.40
2018-03-11T01:50:25.813Z,76.90
2018-03-11T01:53:04.237Z,74.60
2018-03-11T01:55:31.793Z,74.00
2018-03-11T01:57:59.377Z,74.50
2018-03-11T02:00:26.957Z,73.20
2018-03-11T02:02:54.545Z,75.70
2018-03-11T02:05:22.107Z,75.00
2018-03-11T02:07:49.706Z,75.70
2018-03-11T02:10:17.265Z,74.80
2018-03-11T02:12:44.855Z,74.70
2018-03-11T02:15:12.413Z,75.50
2018-03-11T02:17:40.011Z,73.40
2018-03-11T02:20:07.573Z,75.50
2018-03-11T02:22:35.148Z,75.00
2018-03-11T02:25:02.725Z,75.60
2018-03-11T02:27:30.341Z,74.50
2018-03-11T02:29:57.901Z,73.20
2018-03-11T02:32:25.492Z,73.40
2018-03-11T02:34:53.061Z,71.20
2018-03-11T02:37:20.637Z,74.40
2018-03-11T02:39:48.198Z,73.20
2018-03-11T02:42:16.549Z,76.40
2018-03-11T02:44:44.107Z,76.30
2018-03-11T02:47:11.685Z,74.30
2018-03-11T02:49:39.251Z,75.90
2018-03-11T02:52:06.847Z,72.70
2018-03-11T02:54:34.408Z,76.20
2018-03-11T02:57:01.972Z,73.70
2018-03-11T02:59:29.565Z,73.30
2018-03-11T03:01:57.138Z,75.80
2018-03-11T03:04:24.727Z,73.90
2018-03-11T03:06:52.285Z,74.70
2018-03-11T03:09:19.873Z,75.20
2018-03-11T03:11:47.430Z,75.10
2018-03-11T03:14:15.017Z,74.40
2018-03-11T03:16:42.592Z,73.70
2018-03-11T03:19:10.173Z,76.40
2018-03-11T03:21:37.738Z,74.90
2018-03-11T03:24:05.317Z,74.30
2018-03-11T03:26:32.879Z,73.60
2018-03-11T03:29:00.465Z,73.40
2018-03-11T03:31:28.025Z,74.90
2018-03-11T03:33:55.615Z,72.30
2018-03-11T03:36:23.186Z,73.10
2018-03-11T03:38:51.532Z,74.40
2018-03-11T03:41:19.097Z,74.30
2018-03-11T03:43:46.680Z,75.90
2018-03-11T03:46:15.009Z,73.00
2018-03-11T03:48:42.597Z,72.90
2018-03-11T03:51:10.173Z,72.20
2018-03-11T03:53:37.766Z,75.00
2018-03-11T03:56:05.328Z,74.00
2018-03-11T03:58:32.918Z,75.50
2018-03-11T04:01:00.486Z,74.00
2018-03-11T04:03:28.046Z,72.30
2018-03-11T04:05:55.638Z,73.30
2018-03-11T04:08:23.200Z,73.70
2018-03-11T04:10:50.794Z,71.60
2018-03-11T04:13:18.354Z,71.90
2018-03-11T04:15:45.950Z,72.10
2018-03-11T04:18:13.530Z,72.30
2018-03-11T04:20:41.121Z,72.20
2018-03-11T04:23:08.703Z,73.00
2018-03-11T04:25:36.289Z,73.80
2018-03-11T04:28:03.853Z,74.90
2018-03-11T04:30:31.447Z,74.40
2018-03-11T04:32:59.025Z,73.50
2018-03-11T04:35:26.609Z,74.80
2018-03-11T04:37:54.169Z,73.60
2018-03-11T04:40:21.755Z,73.90
2018-03-11T04:42:49.326Z,74.50
2018-03-11T04:45:16.912Z,74.30
2018-03-11T04:47:44.468Z,72.70
2018-03-11T04:50:12.048Z,72.60
2018-03-11T04:52:39.610Z,73.10
2018-03-11T04:55:07.210Z,73.10
2018-03-11T04:57:35.550Z,74.40
2018-03-11T05:00:03.918Z,74.20
2018-03-11T05:02:31.485Z,74.10
2018-03-11T05:04:59.081Z,75.40
2018-03-11T05:07:26.645Z,75.70
2018-03-11T05:09:54.992Z,74.10
2018-03-11T05:12:22.548Z,74.20
2018-03-11T05:14:50.135Z,72.70
2018-03-11T05:17:17.732Z,74.10
2018-03-11T05:19:45.313Z,73.10
2018-03-11T05:22:12.873Z,72.60
2018-03-11T05:24:40.451Z,74.40
2018-03-11T05:27:08.037Z,74.10
2018-03-11T05:29:36.370Z,73.00
2018-03-11T05:32:03.961Z,73.00
2018-03-11T05:34:32.296Z,73.70
2018-03-11T05:36:59.877Z,73.70
2018-03-11T05:39:27.446Z,73.70
2018-03-11T05:41:55.033Z,73.90
2018-03-11T05:44:22.606Z,73.70
2018-03-11T05:46:50.188Z,74.80
2018-03-11T05:49:17.741Z,73.10
2018-03-11T05:51:45.321Z,73.20
2018-03-11T05:54:12.882Z,72.60
2018-03-11T05:56:40.470Z,73.40
2018-03-11T05:59:08.799Z,74.00
2018-03-11T06:01:36.424Z,73.90
2018-03-11T06:04:04.813Z,73.40
2018-03-11T06:06:32.397Z,73.30
2018-03-11T06:08:59.957Z,73.50
2018-03-11T06:11:27.536Z,73.80
2018-03-11T06:13:55.101Z,75.00
2018-03-11T06:16:22.685Z,73.80
2018-03-11T06:18:50.254Z,73.60
2018-03-11T06:21:18.610Z,72.50
2018-03-11T06:23:46.173Z,72.50
2018-03-11T06:26:14.526Z,75.40
2018-03-11T06:28:42.088Z,74.60
2018-03-11T06:31:09.738Z,73.40
2018-03-11T06:33:37.305Z,74.50
2018-03-11T06:36:04.897Z,73.50
2018-03-11T06:38:33.262Z,73.50
2018-03-11T06:41:00.839Z,73.40
2018-03-11T06:43:28.429Z,74.40
2018-03-11T06:45:55.998Z,74.50
2018-03-11T06:48:23.590Z,74.50
2018-03-11T06:50:51.148Z,74.80
2018-03-11T06:53:18.737Z,75.20
2018-03-11T06:55:46.306Z,74.20
2018-03-11T06:58:13.946Z,74.80
2018-03-11T07:00:41.529Z,73.40
2018-03-11T07:03:09.117Z,72.90
2018-03-11T07:05:36.672Z,74.40
2018-03-11T07:08:04.256Z,76.90
2018-03-11T07:10:31.821Z,77.80
2018-03-11T07:13:00.256Z,74.10
2018-03-11T07:15:27.822Z,74.40
2018-03-11T07:17:55.422Z,74.00
2018-03-11T07:20:22.994Z,73.20
2018-03-11T07:22:51.350Z,74.90
2018-03-11T07:25:18.928Z,74.80
2018-03-11T07:27:46.514Z,74.80
2018-03-11T07:30:14.078Z,74.20
2018-03-11T07:32:41.642Z,73.50
2018-03-11T07:35:09.224Z,72.70
2018-03-11T07:37:36.785Z,71.50
2018-03-11T07:40:05.298Z,73.50
2018-03-11T07:42:33.640Z,72.60
2018-03-11T07:45:01.238Z,72.50
2018-03-11T07:47:28.810Z,72.20
2018-03-11T07:49:57.168Z,70.80
2018-03-11T07:52:24.738Z,70.80
2018-03-11T07:54:53.102Z,72.90
2018-03-11T07:57:20.678Z,72.90
2018-03-11T07:59:48.269Z,72.80
2018-03-11T08:02:15.847Z,71.60
2018-03-11T08:04:43.433Z,72.10
2018-03-11T08:07:11.009Z,72.00
2018-03-11T08:09:39.370Z,71.40
2018-03-11T08:12:06.954Z,71.30
2018-03-11T08:14:35.381Z,71.70
2018-03-11T08:17:02.904Z,71.60
2018-03-11T08:19:30.502Z,71.40
2018-03-11T08:21:58.126Z,71.70
2018-03-11T08:24:25.717Z,71.00
2018-03-11T08:26:53.291Z,71.30
2018-03-11T08:29:20.877Z,71.90
2018-03-11T08:31:49.208Z,72.00
2018-03-11T08:34:16.796Z,72.00
2018-03-11T08:36:44.373Z,71.30
2018-03-11T08:39:12.732Z,71.70
2018-03-11T08:41:40.297Z,71.60
2018-03-11T08:44:07.885Z,71.90
2018-03-11T08:46:35.452Z,71.40
2018-03-11T08:49:03.023Z,71.50
2018-03-11T08:51:30.646Z,71.20
2018-03-11T08:53:58.980Z,70.90
2018-03-11T08:56:27.346Z,70.80
2018-03-11T08:58:54.913Z,70.80
2018-03-11T09:01:22.539Z,71.30
2018-03-11T09:03:50.114Z,71.70
2018-03-11T09:06:17.706Z,71.50
2018-03-11T09:08:45.287Z,71.50
2018-03-11T09:11:12.873Z,71.50
2018-03-11T09:13:40.433Z,71.50
2018-03-11T09:16:08.039Z,71.50
2018-03-11T09:18:35.615Z,72.00
2018-03-11T09:21:03.277Z,71.60
2018-03-11T09:23:30.853Z,71.70
2018-03-11T09:25:59.204Z,71.40
2018-03-11T09:28:26.783Z,71.30
2018-03-11T09:30:54.374Z,71.40
2018-03-11T09:33:21.939Z,71.80
2018-03-11T09:35:49.534Z,71.50
2018-03-11T09:38:17.096Z,71.60
2018-03-11T09:40:44.689Z,70.90
2018-03-11T09:43:13.023Z,70.70
2018-03-11T09:45:40.612Z,70.60
2018-03-11T09:48:08.195Z,70.40
2018-03-11T09:50:35.779Z,69.50
2018-03-11T09:53:03.341Z,69.40
2018-03-11T09:55:30.969Z,70.00
2018-03-11T09:57:58.642Z,69.00
2018-03-11T10:00:26.238Z,69.60
2018-03-11T10:02:53.802Z,69.90
2018-03-11T10:05:21.529Z,69.80
2018-03-11T10:07:49.120Z,69.00
2018-03-11T10:10:16.799Z,70.00
2018-03-11T10:12:44.394Z,68.90
2018-03-11T10:15:11.970Z,69.30
2018-03-11T10:17:39.570Z,69.00
2018-03-11T10:20:07.142Z,69.40
2018-03-11T10:22:34.743Z,69.20
2018-03-11T10:25:02.313Z,69.10
2018-03-11T10:27:29.898Z,69.10
2018-03-11T10:29:57.509Z,69.10
2018-03-11T10:32:25.100Z,69.00
2018-03-11T10:34:52.698Z,68.80
2018-03-11T10:37:20.277Z,68.40
2018-03-11T10:39:48.610Z,66.50
2018-03-11T10:42:16.204Z,66.40
2018-03-11T10:44:43.778Z,66.90
2018-03-11T10:47:11.679Z,66.80
2018-03-11T10:49:39.250Z,67.10
2018-03-11T10:52:06.832Z,68.20
2018-03-11T10:54:34.442Z,68.60
2018-03-11T10:57:02.130Z,68.60
2018-03-11T10:59:29.710Z,68.10
2018-03-11T11:02:02.882Z,68.50
2018-03-11T11:04:42.651Z,68.40
2018-03-11T11:07:10.250Z,68.40
2018-03-11T11:09:37.813Z,67.90
2018-03-11T11:12:05.416Z,67.80
2018-03-11T11:14:32.981Z,68.20
2018-03-11T11:17:00.565Z,68.20
2018-03-11T11:19:28.128Z,67.80
2018-03-11T11:21:56.477Z,66.70
2018-03-11T11:24:24.041Z,66.50
2018-03-11T11:26:51.609Z,66.50
2018-03-11T11:29:19.216Z,67.90
2018-03-11T11:31:46.780Z,66.40
2018-03-11T11:34:15.135Z,66.80
2018-03-11T11:36:42.713Z,66.70
2018-03-11T11:39:10.299Z,66.10
2018-03-11T11:41:37.865Z,63.60
2018-03-11T11:44:05.486Z,64.80
2018-03-11T11:46:33.050Z,64.70
2018-03-11T11:49:00.636Z,64.30
2018-03-11T11:51:28.965Z,64.60
2018-03-11T11:53:56.560Z,64.60
2018-03-11T11:56:24.127Z,64.80
2018-03-11T11:58:51.726Z,65.50
2018-03-11T12:01:22.262Z,64.20
2018-03-11T12:03:52.538Z,63.70
2018-03-11T12:06:22.332Z,63.40
2018-03-11T12:08:52.525Z,62.70
2018-03-11T12:11:22.809Z,63.50
2018-03-11T12:13:52.586Z,63.40
2018-03-11T12:16:20.148Z,61.50
2018-03-11T12:18:47.734Z,61.20
2018-03-11T12:21:15.358Z,63.60
2018-03-11T12:23:42.945Z,63.30
2018-03-11T12:26:10.514Z,63.50
2018-03-11T12:28:46.228Z,63.40
2018-03-11T12:31:19.249Z,59.90
2018-03-11T12:33:49.545Z,60.00
2018-03-11T12:36:18.137Z,60.80
2018-03-11T12:38:45.741Z,59.60
2018-03-11T12:41:13.315Z,61.00
2018-03-11T12:43:40.902Z,59.50
2018-03-11T12:46:08.469Z,59.20
2018-03-11T12:48:36.063Z,58.40
2018-03-11T12:51:03.693Z,59.80
2018-03-11T12:53:31.307Z,62.10
2018-03-11T12:55:58.869Z,61.60
2018-03-11T12:58:26.444Z,60.80
2018-03-11T13:00:54.038Z,60.70
2018-03-11T13:03:21.699Z,62.60
2018-03-11T13:05:49.333Z,60.50
2018-03-11T13:08:16.897Z,60.20
2018-03-11T13:10:44.487Z,60.90
2018-03-11T13:13:12.061Z,59.20
2018-03-11T13:15:39.656Z,61.30
2018-03-11T13:18:07.217Z,61.20
2018-03-11T13:20:46.495Z,61.80
2018-03-11T13:23:14.057Z,59.90
2018-03-11T13:25:41.697Z,62.10
2018-03-11T13:28:20.978Z,59.60
2018-03-11T13:30:51.069Z,60.70
2018-03-11T13:33:31.854Z,62.60
2018-03-11T13:36:00.528Z,62.30
2018-03-11T13:38:53.762Z,62.40
2018-03-11T13:41:21.349Z,63.20
2018-03-11T13:43:48.941Z,63.80
2018-03-11T13:46:28.272Z,63.50
2018-03-11T13:48:56.609Z,63.60
2018-03-11T13:51:35.960Z,63.60
2018-03-11T13:54:03.527Z,64.10
2018-03-11T13:56:31.886Z,63.90
2018-03-11T13:58:59.457Z,63.70
2018-03-11T14:01:27.049Z,63.20
2018-03-11T14:03:54.622Z,64.10
2018-03-11T14:06:22.219Z,64.20
2018-03-11T14:08:51.302Z,64.70
2018-03-11T14:11:19.234Z,64.10
2018-03-11T14:13:46.801Z,64.80
2018-03-11T14:16:14.396Z,64.20
2018-03-11T14:18:41.965Z,63.70
2018-03-11T14:21:09.565Z,64.70
2018-03-11T14:23:37.145Z,65.20
2018-03-11T14:26:05.049Z,65.40
2018-03-11T14:28:32.630Z,66.00
2018-03-11T14:31:00.986Z,66.70
2018-03-11T14:33:28.561Z,66.70
2018-03-11T14:35:56.163Z,66.80
2018-03-11T14:38:23.726Z,66.70
2018-03-11T14:40:51.317Z,67.50
2018-03-11T14:43:19.974Z,67.70
2018-03-11T14:45:47.575Z,67.80
2018-03-11T14:48:15.144Z,67.80
2018-03-11T14:50:42.785Z,68.00
2018-03-11T14:53:10.334Z,69.10
2018-03-11T14:55:38.688Z,68.10
2018-03-11T14:58:06.306Z,68.00
2018-03-11T15:00:34.676Z,68.30
2018-03-11T15:03:02.249Z,68.20
2018-03-11T15:05:30.611Z,68.30
2018-03-11T15:07:58.182Z,68.30
2018-03-11T15:10:25.780Z,69.50
2018-03-11T15:12:54.435Z,69.40
2018-03-11T15:15:22.103Z,68.90
2018-03-11T15:17:49.668Z,70.40
2018-03-11T15:20:17.237Z,69.40
2018-03-11T15:22:44.834Z,69.00
2018-03-11T15:25:12.404Z,68.90
2018-03-11T15:29:50.206Z,70.30
2018-03-11T15:32:18.020Z,70.10
2018-03-11T15:34:45.567Z,69.80
2018-03-11T15:37:14.743Z,70.10
2018-03-11T15:39:42.324Z,70.10
2018-03-11T15:42:09.929Z,69.30
2018-03-11T15:44:37.501Z,69.60
2018-03-11T15:47:05.331Z,69.70
2018-03-11T15:49:32.914Z,69.30
2018-03-11T15:52:00.524Z,69.50
2018-03-11T15:54:28.869Z,69.50
2018-03-11T15:56:56.459Z,69.50
2018-03-11T15:59:24.804Z,69.40
2018-03-11T16:01:52.401Z,69.30
2018-03-11T16:04:19.973Z,69.30
2018-03-11T16:06:47.567Z,69.20
2018-03-11T16:09:15.129Z,70.00
2018-03-11T16:11:42.722Z,71.50
2018-03-11T16:14:10.289Z,71.20
2018-03-11T16:16:37.887Z,70.40
2018-03-11T16:19:05.478Z,71.20
2018-03-11T16:21:33.065Z,71.20
2018-03-11T16:24:01.397Z,69.90
2018-03-11T16:26:28.994Z,69.80
2018-03-11T16:28:56.573Z,70.50
2018-03-11T16:31:24.165Z,70.40
2018-03-11T16:33:51.740Z,71.20
2018-03-11T16:36:20.177Z,70.70
2018-03-11T16:38:47.771Z,71.40
2018-03-11T16:41:15.345Z,71.10
2018-03-11T16:43:42.937Z,70.80
2018-03-11T16:46:11.280Z,71.70
2018-03-11T16:48:38.877Z,71.50
2018-03-11T16:51:06.450Z,73.60
2018-03-11T16:53:34.032Z,71.80
2018-03-11T16:56:01.603Z,72.20
2018-03-11T16:58:29.192Z,72.00
2018-03-11T17:00:56.759Z,71.00
2018-03-11T17:03:24.350Z,70.90
2018-03-11T17:05:51.916Z,70.10
2018-03-11T17:08:19.511Z,70.00
2018-03-11T17:10:47.096Z,69.80
2018-03-11T17:13:15.466Z,70.80
2018-03-11T17:15:43.042Z,70.70
2018-03-11T17:18:11.401Z,70.30
2018-03-11T17:20:38.973Z,70.30
2018-03-11T17:23:06.574Z,70.30
2018-03-11T17:25:34.156Z,70.50
2018-03-11T17:28:02.530Z,72.10
2018-03-11T17:30:30.102Z,72.00
2018-03-11T17:32:57.706Z,70.30
2018-03-11T17:35:25.275Z,70.50
2018-03-11T17:37:52.857Z,70.70
2018-03-11T17:40:20.421Z,71.10
2018-03-11T17:42:48.013Z,70.20
2018-03-11T17:45:15.580Z,71.30
2018-03-11T17:47:43.173Z,71.50
2018-03-11T17:50:10.740Z,71.20
2018-03-11T17:52:38.334Z,70.50
2018-03-11T17:55:05.921Z,71.70
2018-03-11T17:57:34.264Z,71.20
2018-03-11T18:00:01.854Z,71.70
2018-03-11T18:02:29.430Z,70.30
2018-03-11T18:04:57.029Z,70.10
2018-03-11T18:07:24.605Z,71.50
2018-03-11T18:09:52.198Z,70.70
2018-03-11T18:12:20.577Z,71.30
2018-03-11T18:14:48.178Z,71.30
2018-03-11T18:17:15.754Z,71.00
2018-03-11T18:19:43.915Z,70.60
2018-03-11T18:22:12.302Z,71.10
2018-03-11T18:24:39.963Z,71.10
2018-03-11T18:27:07.559Z,70.40
2018-03-11T18:29:35.608Z,69.80
2018-03-11T18:32:04.249Z,69.80
2018-03-11T18:34:34.627Z,70.10
2018-03-11T18:37:02.247Z,69.70
2018-03-11T18:39:29.846Z,70.10
2018-03-11T18:41:57.435Z,70.70
2018-03-11T18:44:25.035Z,71.50
2018-03-11T18:46:53.377Z,71.10
2018-03-11T18:49:20.966Z,71.90
2018-03-11T18:51:48.537Z,72.90
2018-03-11T18:54:16.133Z,70.90
2018-03-11T18:56:43.701Z,71.50
2018-03-11T18:59:12.063Z,71.00
2018-03-11T19:01:40.420Z,73.60
2018-03-11T19:04:07.995Z,73.10
2018-03-11T19:06:35.608Z,72.90
2018-03-11T19:09:03.202Z,72.60
2018-03-11T19:11:30.826Z,70.90
2018-03-11T19:13:58.399Z,70.80
2018-03-11T19:16:26.001Z,70.10
2018-03-11T19:18:53.565Z,70.20
2018-03-11T19:21:21.916Z,70.90
2018-03-11T19:23:49.629Z,70.90
2018-03-11T19:26:17.225Z,71.90
2018-03-11T19:28:44.886Z,70.80
2018-03-11T19:31:12.488Z,70.90
2018-03-11T19:33:40.052Z,70.50
2018-03-11T19:36:07.656Z,72.80
2018-03-11T19:38:35.225Z,71.10
2018-03-11T19:41:03.376Z,71.80
2018-03-11T19:43:31.191Z,71.30
2018-03-11T19:45:58.838Z,71.30
2018-03-11T19:48:28.464Z,71.20
2018-03-11T19:50:56.098Z,71.30
2018-03-11T19:53:23.665Z,71.60
2018-03-11T19:55:51.313Z,71.40
2018-03-11T19:58:18.862Z,71.30
2018-03-11T20:00:47.222Z,71.80
2018-03-11T20:03:14.791Z,71.90
2018-03-11T20:05:42.397Z,71.60
2018-03-11T20:08:09.960Z,72.50
2018-03-11T20:10:38.316Z,73.20
2018-03-11T20:13:05.890Z,73.20
2018-03-11T20:15:34.230Z,72.10
2018-03-11T20:18:01.813Z,72.00
2018-03-11T20:20:31.116Z,72.40
2018-03-11T20:22:59.189Z,71.80
2018-03-11T20:25:27.344Z,72.80
2018-03-11T20:27:55.118Z,73.60
2018-03-11T20:30:23.883Z,73.00
2018-03-11T20:32:53.125Z,73.70
2018-03-11T20:35:22.327Z,71.50
2018-03-11T20:37:50.406Z,71.50
2018-03-11T20:40:18.465Z,71.90
2018-03-11T20:42:46.682Z,74.70
2018-03-11T20:45:15.128Z,74.20
2018-03-11T20:47:43.211Z,74.00
2018-03-11T20:50:11.048Z,72.90
2018-03-11T20:52:39.063Z,72.60
2018-03-11T20:55:06.825Z,74.20
2018-03-11T20:57:34.532Z,73.00
2018-03-11T21:00:02.104Z,73.20
2018-03-11T21:02:29.736Z,73.80
2018-03-11T21:04:57.309Z,72.80
2018-03-11T21:07:24.914Z,73.20
2018-03-11T21:09:52.485Z,71.50
2018-03-11T21:12:20.866Z,71.60
2018-03-11T21:14:48.453Z,73.10
2018-03-11T21:17:16.049Z,73.90
2018-03-11T21:19:44.381Z,72.30
2018-03-11T21:22:11.968Z,72.40
2018-03-11T21:24:39.543Z,71.70
2018-03-11T21:27:07.119Z,71.70
2018-03-11T21:29:34.700Z,71.20
2018-03-11T21:32:02.274Z,72.10
2018-03-11T21:34:29.866Z,72.30
2018-03-11T21:36:58.202Z,72.50
2018-03-11T21:39:25.785Z,72.50
2018-03-11T21:41:53.371Z,72.70
2018-03-11T21:44:21.737Z,72.80
2018-03-11T21:46:49.301Z,72.70
2018-03-11T21:49:16.888Z,72.70
2018-03-11T21:51:44.449Z,72.10
2018-03-11T21:54:12.038Z,71.70
2018-03-11T21:56:39.601Z,75.10
2018-03-11T21:59:07.203Z,73.20
2018-03-11T22:01:35.532Z,72.20
2018-03-11T22:04:03.129Z,72.30
2018-03-11T22:06:31.465Z,72.70
2018-03-11T22:08:59.066Z,72.60
2018-03-11T22:11:27.404Z,72.00
2018-03-11T22:13:54.992Z,72.00
2018-03-11T22:16:22.584Z,71.90
2018-03-11T22:18:50.187Z,73.00
2018-03-11T22:21:17.756Z,71.60
2018-03-11T22:23:46.110Z,71.10
2018-03-11T22:26:13.669Z,71.10
2018-03-11T22:28:41.263Z,71.00
2018-03-11T22:31:08.848Z,70.90
2018-03-11T22:33:36.448Z,71.30
2018-03-11T22:36:04.010Z,71.30
2018-03-11T22:38:31.616Z,71.00
2018-03-11T22:40:59.956Z,72.00
2018-03-11T22:43:27.527Z,71.90
2018-03-11T22:45:55.118Z,72.90
2018-03-11T22:48:23.454Z,71.70
2018-03-11T22:50:51.049Z,71.70
2018-03-11T22:53:19.378Z,72.30
2018-03-11T22:55:46.972Z,72.30
2018-03-11T22:58:14.957Z,72.50
2018-03-11T23:00:43.317Z,71.40
2018-03-11T23:03:10.894Z,71.40
2018-03-11T23:05:39.420Z,71.30
2018-03-11T23:08:06.991Z,71.60
2018-03-11T23:10:34.635Z,72.70
2018-03-11T23:13:02.212Z,71.90
2018-03-11T23:15:29.810Z,71.70
2018-03-11T23:17:58.145Z,72.30
2018-03-11T23:20:25.744Z,72.30
2018-03-11T23:22:54.081Z,71.30
2018-03-11T23:25:21.684Z,71.40
2018-03-11T23:27:50.022Z,72.10
2018-03-11T23:30:17.626Z,71.90
2018-03-11T23:32:45.970Z,72.00
2018-03-11T23:35:13.562Z,72.00
2018-03-11T23:37:41.889Z,72.80
2018-03-11T23:40:09.486Z,72.80
2018-03-11T23:42:37.818Z,71.80
2018-03-11T23:45:05.409Z,71.80
2018-03-11T23:47:32.972Z,72.90
2018-03-11T23:50:00.546Z,71.50
2018-03-11T23:52:28.168Z,71.70
2018-03-11T23:54:55.736Z,71.10
2018-03-11T23:57:23.329Z,71.80
2018-03-11T23:59:51.670Z,71.80
